Time,TemperatureF,DewpointF,PressureIn,WindDirection,WindDirectionDegrees,WindSpeedMPH,WindSpeedGustMPH,Humidity,HourlyPrecipIn,Conditions,Clouds,dailyrainin,SoftwareType,DateUTC
2013-03-07 00:11:00,31.8,24.0,30.12,North,355,2.0,4.0,73,0.00,,,0.00,weatherlink.com 1.10,2013-03-07 05:11:00,
2013-03-07 00:26:00,31.9,24.0,30.12,NE,38,1.0,4.0,72,0.00,,,0.00,weatherlink.com 1.10,2013-03-07 05:26:00,
2013-03-07 00:41:00,32.0,24.0,30.13,NNW,348,1.0,4.0,72,0.00,,,0.00,weatherlink.com 1.10,2013-03-07 05:41:00,
2013-03-07 00:56:00,32.1,24.0,30.14,North,5,0.0,4.0,72,0.00,,,0.00,weatherlink.com 1.10,2013-03-07 05:56:00,
2013-03-07 01:11:00,30.6,24.0,30.13,North,5,0.0,1.0,77,0.00,,,0.00,weatherlink.com 1.10,2013-03-07 06:11:00,
2013-03-07 01:26:00,29.2,23.0,30.13,North,5,0.0,0.0,79,0.00,,,0.00,weatherlink.com 1.10,2013-03-07 06:26:00,
2013-03-07 01:41:00,28.4,23.0,30.14,NNW,329,1.0,2.0,81,0.00,,,0.00,weatherlink.com 1.10,2013-03-07 06:41:00,
2013-03-07 01:56:00,28.8,24.0,30.14,NE,56,0.0,2.0,81,0.00,,,0.00,weatherlink.com 1.10,2013-03-07 06:56:00,
2013-03-07 02:11:00,27.5,23.0,30.14,NE,40,0.0,0.0,83,0.00,,,0.00,weatherlink.com 1.10,2013-03-07 07:11:00,
2013-03-07 02:26:00,26.5,23.0,30.14,NE,40,0.0,0.0,86,0.00,,,0.00,weatherlink.com 1.10,2013-03-07 07:26:00,
2013-03-07 02:41:00,26.2,23.0,30.14,NE,40,0.0,0.0,87,0.00,,,0.00,weatherlink.com 1.10,2013-03-07 07:41:00,
2013-03-07 02:56:00,25.8,23.0,30.14,NE,40,0.0,2.0,87,0.00,,,0.00,weatherlink.com 1.10,2013-03-07 07:56:00,
2013-03-07 03:11:00,26.3,23.0,30.15,WNW,284,2.0,3.0,88,0.00,,,0.00,weatherlink.com 1.10,2013-03-07 08:11:00,
2013-03-07 03:26:00,26.4,23.0,30.15,West,281,0.0,2.0,87,0.00,,,0.00,weatherlink.com 1.10,2013-03-07 08:26:00,
2013-03-07 03:42:00,25.6,23.0,30.15,West,281,0.0,0.0,88,0.00,,,0.00,weatherlink.com 1.10,2013-03-07 08:42:00,
2013-03-07 03:57:00,25.0,22.0,30.15,West,281,0.0,0.0,88,0.00,,,0.00,weatherlink.com 1.10,2013-03-07 08:57:00,
2013-03-07 04:12:00,24.7,22.0,30.16,West,281,0.0,0.0,90,0.00,,,0.00,weatherlink.com 1.10,2013-03-07 09:12:00,
2013-03-07 04:27:00,24.4,22.0,30.17,West,281,0.0,0.0,89,0.00,,,0.00,weatherlink.com 1.10,2013-03-07 09:27:00,
2013-03-07 04:42:00,24.6,22.0,30.17,West,281,1.0,2.0,90,0.00,,,0.00,weatherlink.com 1.10,2013-03-07 09:42:00,
2013-03-07 04:57:00,25.1,22.0,30.18,West,281,0.0,2.0,89,0.00,,,0.00,weatherlink.com 1.10,2013-03-07 09:57:00,
2013-03-07 05:12:00,24.4,22.0,30.19,West,281,0.0,0.0,89,0.00,,,0.00,weatherlink.com 1.10,2013-03-07 10:12:00,
2013-03-07 05:27:00,23.6,21.0,30.19,West,281,0.0,0.0,90,0.00,,,0.00,weatherlink.com 1.10,2013-03-07 10:27:00,
2013-03-07 05:42:00,23.9,21.0,30.19,NW,326,0.0,2.0,90,0.00,,,0.00,weatherlink.com 1.10,2013-03-07 10:42:00,
2013-03-07 05:57:00,23.5,21.0,30.20,NNW,327,0.0,1.0,90,0.00,,,0.00,weatherlink.com 1.10,2013-03-07 10:57:00,
2013-03-07 06:12:00,23.3,21.0,30.21,NNW,327,0.0,0.0,90,0.00,,,0.00,weatherlink.com 1.10,2013-03-07 11:12:00,
2013-03-07 06:27:00,23.1,21.0,30.21,NNW,327,0.0,0.0,91,0.00,,,0.00,weatherlink.com 1.10,2013-03-07 11:27:00,
2013-03-07 06:42:00,22.6,20.0,30.21,NW,326,0.0,0.0,91,0.00,,,0.00,weatherlink.com 1.10,2013-03-07 11:42:00,
2013-03-07 06:57:00,23.2,21.0,30.21,NNW,327,0.0,0.0,91,0.00,,,0.00,weatherlink.com 1.10,2013-03-07 11:57:00,
2013-03-07 07:12:00,23.6,21.0,30.21,NW,326,0.0,1.0,90,0.00,,,0.00,weatherlink.com 1.10,2013-03-07 12:12:00,
2013-03-07 07:27:00,24.4,22.0,30.22,North,11,0.0,2.0,90,0.00,,,0.00,weatherlink.com 1.10,2013-03-07 12:27:00,
2013-03-07 07:42:00,26.1,24.0,30.22,North,11,0.0,0.0,90,0.00,,,0.00,weatherlink.com 1.10,2013-03-07 12:42:00,
2013-03-07 07:57:00,28.4,25.0,30.22,North,11,0.0,1.0,87,0.00,,,0.00,weatherlink.com 1.10,2013-03-07 12:57:00,
2013-03-07 08:12:00,31.2,27.0,30.22,North,11,0.0,0.0,84,0.00,,,0.00,weatherlink.com 1.10,2013-03-07 13:12:00,
2013-03-07 08:27:00,34.2,28.0,30.22,NE,53,4.0,5.0,77,0.00,,,0.00,weatherlink.com 1.10,2013-03-07 13:27:00,
2013-03-07 08:42:00,34.5,27.0,30.22,North,5,0.0,5.0,73,0.00,,,0.00,weatherlink.com 1.10,2013-03-07 13:42:00,
2013-03-07 08:57:00,35.6,27.0,30.23,NW,307,3.0,7.0,72,0.00,,,0.00,weatherlink.com 1.10,2013-03-07 13:57:00,
2013-03-07 09:12:00,36.9,27.0,30.24,WNW,296,6.0,8.0,68,0.00,,,0.00,weatherlink.com 1.10,2013-03-07 14:12:00,
2013-03-07 09:28:00,38.3,28.0,30.24,NNW,329,5.0,7.0,67,0.00,,,0.00,weatherlink.com 1.10,2013-03-07 14:28:00,
2013-03-07 09:58:00,39.7,27.0,30.23,West,275,5.0,11.0,62,0.00,,,0.00,weatherlink.com 1.10,2013-03-07 14:58:00,
2013-03-07 10:13:00,40.2,27.0,30.23,WNW,288,6.0,9.0,59,0.00,,,0.00,weatherlink.com 1.10,2013-03-07 15:13:00,
2013-03-07 10:28:00,41.2,28.0,30.22,WNW,303,1.0,7.0,60,0.00,,,0.00,weatherlink.com 1.10,2013-03-07 15:28:00,
2013-03-07 10:43:00,42.3,27.0,30.22,North,355,7.0,12.0,54,0.00,,,0.00,weatherlink.com 1.10,2013-03-07 15:43:00,
2013-03-07 10:58:00,42.9,27.0,30.21,North,5,3.0,8.0,53,0.00,,,0.00,weatherlink.com 1.10,2013-03-07 15:58:00,
2013-03-07 11:13:00,43.2,26.0,30.21,NE,44,5.0,6.0,51,0.00,,,0.00,weatherlink.com 1.10,2013-03-07 16:13:00,
2013-03-07 11:28:00,43.8,27.0,30.21,WNW,294,4.0,8.0,52,0.00,,,0.00,weatherlink.com 1.10,2013-03-07 16:28:00,
2013-03-07 11:43:00,44.7,27.0,30.21,WSW,240,3.0,8.0,50,0.00,,,0.00,weatherlink.com 1.10,2013-03-07 16:43:00,
2013-03-07 11:58:00,47.0,29.0,30.20,West,268,5.0,6.0,49,0.00,,,0.00,weatherlink.com 1.10,2013-03-07 16:58:00,
2013-03-07 12:13:00,46.5,28.0,30.20,WSW,256,3.0,12.0,48,0.00,,,0.00,weatherlink.com 1.10,2013-03-07 17:13:00,
2013-03-07 12:28:00,47.7,27.0,30.20,WNW,283,7.0,8.0,45,0.00,,,0.00,weatherlink.com 1.10,2013-03-07 17:28:00,
2013-03-07 12:58:00,49.3,27.0,30.18,NNW,327,4.0,9.0,43,0.00,,,0.00,weatherlink.com 1.10,2013-03-07 17:58:00,
2013-03-07 13:13:00,50.4,28.0,30.17,WNW,291,5.0,9.0,43,0.00,,,0.00,weatherlink.com 1.10,2013-03-07 18:13:00,
2013-03-07 13:28:00,50.7,28.0,30.16,West,281,3.0,8.0,42,0.00,,,0.00,weatherlink.com 1.10,2013-03-07 18:28:00,
2013-03-07 13:58:00,51.8,29.0,30.15,WNW,296,4.0,8.0,41,0.00,,,0.00,weatherlink.com 1.10,2013-03-07 18:58:00,
2013-03-07 14:13:00,52.4,27.0,30.15,WNW,288,4.0,8.0,38,0.00,,,0.00,weatherlink.com 1.10,2013-03-07 19:13:00,
2013-03-07 14:29:00,53.2,29.0,30.14,SW,220,3.0,7.0,39,0.00,,,0.00,weatherlink.com 1.10,2013-03-07 19:29:00,
2013-03-07 14:43:00,53.7,27.0,30.15,NW,305,1.0,7.0,36,0.00,,,0.00,weatherlink.com 1.10,2013-03-07 19:43:00,
2013-03-07 14:58:00,54.2,27.0,30.14,East,88,1.0,7.0,35,0.00,,,0.00,weatherlink.com 1.10,2013-03-07 19:58:00,
2013-03-07 15:14:00,55.5,29.0,30.14,North,5,5.0,7.0,37,0.00,,,0.00,weatherlink.com 1.10,2013-03-07 20:14:00,
2013-03-07 15:29:00,55.3,29.0,30.14,NNE,31,5.0,9.0,37,0.00,,,0.00,weatherlink.com 1.10,2013-03-07 20:29:00,
2013-03-07 15:44:00,55.5,28.0,30.13,North,9,2.0,7.0,35,0.00,,,0.00,weatherlink.com 1.10,2013-03-07 20:44:00,
2013-03-07 15:59:00,55.4,28.0,30.14,NE,50,8.0,12.0,35,0.00,,,0.00,weatherlink.com 1.10,2013-03-07 20:59:00,
2013-03-07 16:14:00,55.2,28.0,30.14,NNE,33,3.0,8.0,35,0.00,,,0.00,weatherlink.com 1.10,2013-03-07 21:14:00,
2013-03-07 16:29:00,54.8,27.0,30.14,NNW,339,4.0,9.0,35,0.00,,,0.00,weatherlink.com 1.10,2013-03-07 21:29:00,
2013-03-07 16:44:00,55.1,27.0,30.14,NNE,27,2.0,7.0,34,0.00,,,0.00,weatherlink.com 1.10,2013-03-07 21:44:00,
2013-03-07 16:59:00,54.5,26.0,30.15,NE,42,7.0,9.0,34,0.00,,,0.00,weatherlink.com 1.10,2013-03-07 21:59:00,
2013-03-07 17:14:00,54.0,26.0,30.15,NNE,27,3.0,7.0,34,0.00,,,0.00,weatherlink.com 1.10,2013-03-07 22:14:00,
2013-03-07 17:29:00,52.7,26.0,30.16,NE,45,3.0,10.0,35,0.00,,,0.00,weatherlink.com 1.10,2013-03-07 22:29:00,
2013-03-07 17:44:00,51.9,26.0,30.16,NNE,28,2.0,8.0,36,0.00,,,0.00,weatherlink.com 1.10,2013-03-07 22:44:00,
2013-03-07 17:59:00,50.1,25.0,30.17,NNW,338,7.0,11.0,37,0.00,,,0.00,weatherlink.com 1.10,2013-03-07 22:59:00,
2013-03-07 18:14:00,48.5,24.0,30.18,NNW,344,6.0,9.0,39,0.00,,,0.00,weatherlink.com 1.10,2013-03-07 23:14:00,
2013-03-07 18:29:00,46.9,24.0,30.18,North,355,0.0,6.0,41,0.00,,,0.00,weatherlink.com 1.10,2013-03-07 23:29:00,
2013-03-07 18:44:00,45.2,25.0,30.19,NNE,19,2.0,8.0,45,0.00,,,0.00,weatherlink.com 1.10,2013-03-07 23:44:00,
2013-03-07 18:59:00,43.8,25.0,30.20,NNE,28,3.0,10.0,47,0.00,,,0.00,weatherlink.com 1.10,2013-03-07 23:59:00,
2013-03-07 19:14:00,42.9,25.0,30.20,NNE,21,3.0,9.0,49,0.00,,,0.00,weatherlink.com 1.10,2013-03-08 00:14:00,
2013-03-07 19:29:00,42.3,25.0,30.21,North,5,2.0,6.0,50,0.00,,,0.00,weatherlink.com 1.10,2013-03-08 00:29:00,
2013-03-07 19:44:00,41.6,24.0,30.21,North,9,4.0,8.0,50,0.00,,,0.00,weatherlink.com 1.10,2013-03-08 00:44:00,
2013-03-07 19:59:00,40.7,24.0,30.22,NE,46,2.0,8.0,52,0.00,,,0.00,weatherlink.com 1.10,2013-03-08 00:59:00,
2013-03-07 20:14:00,39.8,24.0,30.23,NE,55,1.0,5.0,54,0.00,,,0.00,weatherlink.com 1.10,2013-03-08 01:14:00,
2013-03-07 20:29:00,39.2,24.0,30.23,NE,45,1.0,4.0,55,0.00,,,0.00,weatherlink.com 1.10,2013-03-08 01:29:00,
2013-03-07 20:44:00,39.0,24.0,30.24,NE,54,1.0,5.0,55,0.00,,,0.00,weatherlink.com 1.10,2013-03-08 01:44:00,
2013-03-07 20:59:00,38.1,24.0,30.24,NE,41,0.0,2.0,57,0.00,,,0.00,weatherlink.com 1.10,2013-03-08 01:59:00,
2013-03-07 21:14:00,37.4,24.0,30.25,North,9,2.0,4.0,59,0.00,,,0.00,weatherlink.com 1.10,2013-03-08 02:14:00,
2013-03-07 21:29:00,37.1,25.0,30.25,NNE,28,4.0,6.0,61,0.00,,,0.00,weatherlink.com 1.10,2013-03-08 02:29:00,
2013-03-07 21:44:00,37.3,24.0,30.26,NE,38,3.0,7.0,60,0.00,,,0.00,weatherlink.com 1.10,2013-03-08 02:44:00,
2013-03-07 21:59:00,37.0,24.0,30.26,NNE,18,1.0,5.0,60,0.00,,,0.00,weatherlink.com 1.10,2013-03-08 02:59:00,
2013-03-07 22:14:00,36.5,24.0,30.26,North,351,2.0,8.0,60,0.00,,,0.00,weatherlink.com 1.10,2013-03-08 03:14:00,
2013-03-07 22:29:00,36.2,24.0,30.26,NNE,29,2.0,6.0,61,0.00,,,0.00,weatherlink.com 1.10,2013-03-08 03:29:00,
2013-03-07 22:44:00,35.8,24.0,30.26,ENE,68,2.0,6.0,62,0.00,,,0.00,weatherlink.com 1.10,2013-03-08 03:44:00,
2013-03-07 22:59:00,35.3,24.0,30.26,NNE,32,0.0,4.0,63,0.00,,,0.00,weatherlink.com 1.10,2013-03-08 03:59:00,
2013-03-07 23:14:00,34.8,23.0,30.26,NNE,22,1.0,4.0,63,0.00,,,0.00,weatherlink.com 1.10,2013-03-08 04:14:00,
2013-03-07 23:29:00,34.6,23.0,30.27,NE,39,0.0,6.0,64,0.00,,,0.00,weatherlink.com 1.10,2013-03-08 04:29:00,
2013-03-07 23:44:00,34.6,23.0,30.27,NNE,29,1.0,6.0,63,0.00,,,0.00,weatherlink.com 1.10,2013-03-08 04:44:00,
2013-03-07 23:59:00,34.8,23.0,30.27,NE,37,4.0,6.0,62,0.00,,,0.00,weatherlink.com 1.10,2013-03-08 04:59:00,